createdAt,value
2018-01-02T00:00:13.834Z,57.57
2018-01-02T00:00:45.493Z,57.58
2018-01-02T00:01:17.153Z,57.72
2018-01-02T00:01:48.787Z,57.83
2018-01-02T00:02:20.409Z,57.76
2018-01-02T00:02:52.030Z,57.85
2018-01-02T00:03:23.684Z,57.93
2018-01-02T00:03:55.310Z,57.96
2018-01-02T00:04:26.946Z,58.02
2018-01-02T00:04:58.566Z,58.08
2018-01-02T00:05:30.189Z,58.04
2018-01-02T00:06:01.858Z,58.10
2018-01-02T00:06:33.486Z,58.13
2018-01-02T00:07:05.110Z,58.23
2018-01-02T00:07:36.787Z,58.21
2018-01-02T00:08:08.425Z,58.29
2018-01-02T00:08:40.045Z,58.47
2018-01-02T00:09:11.673Z,58.46
2018-01-02T00:09:43.466Z,58.47
2018-01-02T00:10:15.098Z,58.37
2018-01-02T00:10:46.717Z,58.46
2018-01-02T00:11:18.337Z,58.45
2018-01-02T00:11:49.967Z,58.46
2018-01-02T00:12:21.594Z,58.50
2018-01-02T00:12:53.277Z,58.50
2018-01-02T00:13:24.912Z,58.50
2018-01-02T00:13:56.545Z,58.55
2018-01-02T00:14:28.170Z,58.59
2018-01-02T00:14:59.798Z,58.61
2018-01-02T00:15:31.425Z,58.64
2018-01-02T00:16:03.053Z,58.67
2018-01-02T00:16:34.674Z,58.78
2018-01-02T00:17:06.293Z,58.84
2018-01-02T00:17:37.914Z,58.93
2018-01-02T00:18:09.593Z,59.02
2018-01-02T00:18:41.218Z,59.01
2018-01-02T00:19:12.837Z,59.09
2018-01-02T00:19:44.465Z,59.04
2018-01-02T00:20:16.093Z,59.07
2018-01-02T00:20:47.718Z,59.15
2018-01-02T00:21:19.338Z,59.23
2018-01-02T00:21:50.958Z,59.23
2018-01-02T00:22:22.585Z,59.31
2018-01-02T00:22:54.211Z,59.32
2018-01-02T00:23:25.878Z,59.28
2018-01-02T00:23:57.497Z,60.13
2018-01-02T00:24:29.126Z,60.07
2018-01-02T00:25:00.749Z,60.17
2018-01-02T00:25:32.370Z,60.38
2018-01-02T00:26:03.998Z,60.18
2018-01-02T00:26:35.665Z,60.15
2018-01-02T00:27:07.286Z,60.22
2018-01-02T00:27:38.914Z,60.26
2018-01-02T00:28:10.543Z,60.22
2018-01-02T00:28:42.170Z,60.49
2018-01-02T00:29:13.841Z,60.19
2018-01-02T00:29:45.463Z,60.44
2018-01-02T00:30:17.086Z,60.76
2018-01-02T00:30:48.705Z,60.76
2018-01-02T00:31:20.325Z,60.58
2018-01-02T00:31:51.958Z,60.66
2018-01-02T00:32:23.581Z,60.68
2018-01-02T00:32:55.201Z,60.69
2018-01-02T00:33:26.826Z,60.98
2018-01-02T00:33:58.446Z,60.72
2018-01-02T00:34:30.118Z,60.70
2018-01-02T00:35:01.738Z,60.89
2018-01-02T00:35:33.425Z,60.87
2018-01-02T00:36:05.046Z,60.96
2018-01-02T00:36:36.665Z,60.97
2018-01-02T00:37:08.290Z,61.00
2018-01-02T00:37:39.913Z,60.65
2018-01-02T00:38:11.593Z,60.62
2018-01-02T00:38:43.196Z,60.78
2018-01-02T00:39:14.823Z,60.88
2018-01-02T00:39:46.446Z,60.77
2018-01-02T00:40:18.081Z,60.68
2018-01-02T00:40:49.761Z,60.76
2018-01-02T00:41:21.390Z,60.80
2018-01-02T00:41:53.025Z,60.67
2018-01-02T00:42:24.650Z,60.90
2018-01-02T00:42:56.282Z,60.63
2018-01-02T00:43:27.901Z,60.81
2018-01-02T00:43:59.522Z,60.94
2018-01-02T00:44:31.151Z,60.96
2018-01-02T00:45:02.786Z,60.60
2018-01-02T00:45:34.405Z,60.80
2018-01-02T00:46:06.077Z,60.86
2018-01-02T00:46:37.700Z,61.04
2018-01-02T00:47:09.318Z,60.76
2018-01-02T00:47:40.938Z,60.96
2018-01-02T00:48:12.565Z,61.03
2018-01-02T00:48:44.187Z,60.99
2018-01-02T00:49:15.822Z,60.98
2018-01-02T00:49:47.450Z,60.87
2018-01-02T00:50:19.070Z,61.17
2018-01-02T00:50:50.698Z,61.00
2018-01-02T00:51:22.406Z,60.94
2018-01-02T00:51:54.022Z,61.16
2018-01-02T00:52:25.645Z,61.18
2018-01-02T00:52:57.305Z,60.98
2018-01-02T00:53:28.930Z,61.08
2018-01-02T00:54:00.557Z,61.22
2018-01-02T00:54:32.187Z,61.28
2018-01-02T00:55:03.814Z,61.13
2018-01-02T00:55:35.435Z,61.01
2018-01-02T00:56:07.057Z,61.29
2018-01-02T00:56:38.729Z,61.10
2018-01-02T00:57:10.350Z,61.24
2018-01-02T00:57:41.973Z,61.26
2018-01-02T00:58:13.594Z,61.16
2018-01-02T00:58:45.216Z,61.24
2018-01-02T00:59:16.837Z,61.27
2018-01-02T00:59:48.465Z,61.36
2018-01-02T01:00:20.090Z,61.25
2018-01-02T01:00:51.714Z,61.41
2018-01-02T01:01:23.337Z,61.52
2018-01-02T01:01:55.006Z,61.49
2018-01-02T01:02:26.630Z,61.26
2018-01-02T01:02:58.253Z,61.29
2018-01-02T01:03:29.877Z,61.22
2018-01-02T01:04:01.549Z,61.30
2018-01-02T01:04:33.171Z,61.31
2018-01-02T01:05:04.798Z,61.73
2018-01-02T01:05:36.421Z,61.69
2018-01-02T01:06:08.040Z,61.78
2018-01-02T01:06:39.685Z,61.46
2018-01-02T01:07:11.313Z,61.45
2018-01-02T01:07:42.980Z,61.40
2018-01-02T01:08:14.601Z,61.74
2018-01-02T01:08:46.222Z,61.73
2018-01-02T01:09:17.850Z,61.61
2018-01-02T01:09:49.472Z,61.76
2018-01-02T01:10:21.094Z,61.58
2018-01-02T01:10:52.717Z,61.52
2018-01-02T01:11:24.373Z,61.49
2018-01-02T01:11:56.006Z,61.52
2018-01-02T01:12:27.685Z,61.32
2018-01-02T01:12:59.305Z,61.60
2018-01-02T01:13:30.937Z,61.92
2018-01-02T01:14:02.565Z,61.66
2018-01-02T01:14:34.189Z,61.83
2018-01-02T01:15:05.810Z,61.85
2018-01-02T01:15:37.430Z,61.84
2018-01-02T01:16:09.050Z,62.00
2018-01-02T01:16:40.828Z,61.96
2018-01-02T01:17:12.453Z,62.00
2018-01-02T01:17:44.078Z,61.87
2018-01-02T01:18:15.702Z,61.96
2018-01-02T01:18:47.329Z,61.93
2018-01-02T01:19:18.949Z,61.82
2018-01-02T01:19:50.581Z,61.78
2018-01-02T01:20:22.201Z,61.59
2018-01-02T01:20:53.830Z,61.64
2018-01-02T01:21:25.449Z,61.58
2018-01-02T01:21:57.074Z,61.52
2018-01-02T01:22:28.693Z,61.58
2018-01-02T01:23:00.319Z,61.48
2018-01-02T01:23:31.978Z,61.32
2018-01-02T01:24:03.606Z,61.39
2018-01-02T01:24:35.225Z,61.41
2018-01-02T01:25:06.851Z,61.21
2018-01-02T01:25:38.481Z,61.26
2018-01-02T01:26:10.106Z,61.18
2018-01-02T01:26:41.725Z,61.17
2018-01-02T01:27:13.394Z,61.07
2018-01-02T01:27:45.022Z,61.12
2018-01-02T01:28:16.646Z,61.02
2018-01-02T01:28:48.264Z,60.90
2018-01-02T01:29:19.926Z,60.89
2018-01-02T01:29:51.546Z,60.70
2018-01-02T01:30:23.173Z,60.76
2018-01-02T01:30:54.836Z,60.79
2018-01-02T01:31:26.458Z,60.80
2018-01-02T01:31:58.078Z,60.92
2018-01-02T01:32:29.709Z,60.86
2018-01-02T01:33:01.339Z,60.97
2018-01-02T01:33:33.005Z,60.91
2018-01-02T01:34:04.626Z,60.81
2018-01-02T01:34:36.250Z,60.82
2018-01-02T01:35:07.874Z,60.85
2018-01-02T01:35:39.494Z,60.83
2018-01-02T01:36:11.125Z,60.78
2018-01-02T01:36:42.749Z,60.75
2018-01-02T01:37:14.373Z,60.88
2018-01-02T01:37:45.994Z,60.87
2018-01-02T01:38:17.621Z,60.79
2018-01-02T01:38:49.306Z,60.82
2018-01-02T01:39:20.929Z,60.72
2018-01-02T01:39:52.557Z,60.79
2018-01-02T01:40:24.189Z,60.73
2018-01-02T01:40:55.810Z,60.78
2018-01-02T01:41:27.442Z,60.88
2018-01-02T01:41:59.062Z,60.80
2018-01-02T01:42:30.689Z,60.95
2018-01-02T01:43:02.322Z,61.16
2018-01-02T01:43:33.941Z,60.89
2018-01-02T01:44:05.562Z,61.04
2018-01-02T01:44:37.190Z,61.02
2018-01-02T01:45:08.817Z,61.08
2018-01-02T01:45:40.445Z,61.03
2018-01-02T01:46:12.065Z,61.01
2018-01-02T01:46:43.690Z,61.24
2018-01-02T01:47:15.313Z,61.72
2018-01-02T01:47:46.934Z,62.21
2018-01-02T01:48:18.557Z,54.49
2018-01-02T01:48:50.177Z,57.47
2018-01-02T01:49:21.843Z,58.13
2018-01-02T01:49:53.469Z,57.34
2018-01-02T01:50:25.098Z,57.26
2018-01-02T01:50:56.721Z,57.48
2018-01-02T01:51:28.350Z,57.06
2018-01-02T01:51:59.972Z,57.65
2018-01-02T01:52:31.635Z,57.51
2018-01-02T01:53:03.270Z,57.74
2018-01-02T01:53:34.933Z,57.70
2018-01-02T01:54:06.549Z,57.93
2018-01-02T01:54:38.170Z,57.96
2018-01-02T01:55:09.807Z,58.21
2018-01-02T01:55:41.430Z,58.38
2018-01-02T01:56:13.054Z,58.58
2018-01-02T01:56:44.726Z,58.60
2018-01-02T01:57:16.350Z,58.64
2018-01-02T01:57:47.970Z,58.72
2018-01-02T01:58:19.633Z,58.79
2018-01-02T01:58:51.253Z,58.99
2018-01-02T01:59:22.872Z,59.16
2018-01-02T01:59:54.514Z,59.26
2018-01-02T02:00:26.133Z,59.41
2018-01-02T02:00:57.754Z,59.48
2018-01-02T02:01:29.377Z,59.55
2018-01-02T02:02:00.998Z,59.66
2018-01-02T02:02:32.626Z,59.58
2018-01-02T02:03:04.281Z,59.79
2018-01-02T02:03:35.946Z,59.95
2018-01-02T02:04:07.565Z,60.14
2018-01-02T02:04:39.185Z,60.00
2018-01-02T02:05:10.817Z,60.17
2018-01-02T02:05:42.442Z,60.23
2018-01-02T02:06:14.410Z,60.28
2018-01-02T02:06:46.033Z,60.55
2018-01-02T02:07:17.657Z,60.52
2018-01-02T02:07:49.277Z,60.49
2018-01-02T02:08:20.901Z,60.45
2018-01-02T02:08:52.521Z,60.52
2018-01-02T02:09:24.146Z,60.62
2018-01-02T02:09:55.770Z,60.91
2018-01-02T02:10:27.394Z,60.67
2018-01-02T02:10:59.013Z,60.87
2018-01-02T02:11:30.637Z,60.90
2018-01-02T02:12:02.266Z,60.92
2018-01-02T02:12:33.894Z,60.89
2018-01-02T02:13:05.527Z,61.08
2018-01-02T02:13:37.194Z,61.11
2018-01-02T02:14:08.818Z,61.20
2018-01-02T02:14:40.498Z,61.10
2018-01-02T02:15:12.154Z,61.24
2018-01-02T02:15:43.774Z,61.24
2018-01-02T02:16:15.401Z,61.35
2018-01-02T02:16:47.022Z,61.38
2018-01-02T02:17:18.650Z,61.30
2018-01-02T02:17:50.274Z,61.44
2018-01-02T02:18:21.893Z,61.45
2018-01-02T02:18:53.514Z,61.61
2018-01-02T02:19:25.133Z,61.66
2018-01-02T02:19:56.805Z,61.82
2018-01-02T02:20:28.429Z,62.32
2018-01-02T02:21:00.055Z,62.42
2018-01-02T02:21:31.726Z,62.26
2018-01-02T02:22:03.354Z,62.34
2018-01-02T02:22:34.982Z,62.40
2018-01-02T02:23:06.612Z,62.53
2018-01-02T02:23:38.233Z,62.32
2018-01-02T02:24:09.853Z,62.51
2018-01-02T02:24:41.476Z,62.45
2018-01-02T02:25:13.102Z,62.53
2018-01-02T02:25:44.727Z,62.43
2018-01-02T02:26:16.394Z,62.58
2018-01-02T02:26:48.065Z,62.38
2018-01-02T02:27:19.685Z,62.45
2018-01-02T02:27:51.310Z,62.52
2018-01-02T02:28:22.933Z,62.56
2018-01-02T02:28:54.554Z,62.52
2018-01-02T02:29:26.177Z,62.75
2018-01-02T02:29:57.798Z,62.73
2018-01-02T02:30:29.438Z,62.59
2018-01-02T02:31:01.058Z,62.72
2018-01-02T02:31:32.692Z,62.52
2018-01-02T02:32:04.365Z,62.95
2018-01-02T02:32:35.985Z,63.63
2018-01-02T02:33:07.606Z,63.63
2018-01-02T02:33:39.230Z,63.19
2018-01-02T02:34:10.857Z,63.74
2018-01-02T02:34:42.478Z,63.48
2018-01-02T02:35:14.103Z,63.26
2018-01-02T02:35:45.722Z,63.21
2018-01-02T02:36:17.351Z,63.22
2018-01-02T02:36:48.981Z,63.02
2018-01-02T02:37:20.645Z,63.16
2018-01-02T02:37:52.314Z,62.92
2018-01-02T02:38:23.939Z,62.86
2018-01-02T02:38:55.566Z,62.82
2018-01-02T02:39:27.194Z,62.89
2018-01-02T02:39:58.817Z,62.90
2018-01-02T02:40:30.437Z,62.83
2018-01-02T02:41:02.058Z,62.64
2018-01-02T02:41:33.677Z,62.42
2018-01-02T02:42:05.309Z,62.69
2018-01-02T02:42:36.981Z,62.50
2018-01-02T02:43:08.602Z,62.42
2018-01-02T02:43:40.221Z,62.41
2018-01-02T02:44:11.846Z,62.42
2018-01-02T02:44:43.465Z,62.40
2018-01-02T02:45:15.090Z,62.22
2018-01-02T02:45:46.714Z,62.27
2018-01-02T02:46:18.341Z,62.20
2018-01-02T02:46:49.966Z,62.20
2018-01-02T02:47:21.594Z,62.30
2018-01-02T02:47:53.266Z,62.03
2018-01-02T02:48:24.894Z,62.11
2018-01-02T02:48:56.514Z,62.11
2018-01-02T02:49:28.139Z,62.09
2018-01-02T02:49:59.766Z,62.07
2018-01-02T02:50:31.385Z,62.04
2018-01-02T02:51:03.010Z,61.92
2018-01-02T02:51:34.629Z,61.92
2018-01-02T02:52:06.289Z,61.96
2018-01-02T02:52:37.920Z,61.88
2018-01-02T02:53:09.550Z,62.03
2018-01-02T02:53:41.213Z,61.99
2018-01-02T02:54:12.834Z,61.83
2018-01-02T02:54:44.454Z,61.94
2018-01-02T02:55:16.085Z,61.92
2018-01-02T02:55:47.712Z,61.92
2018-01-02T02:56:19.330Z,61.82
2018-01-02T02:56:50.953Z,61.71
2018-01-02T02:57:22.634Z,61.89
2018-01-02T02:57:54.253Z,61.72
2018-01-02T02:58:25.877Z,61.79
2018-01-02T02:58:57.505Z,61.64
2018-01-02T02:59:29.128Z,61.65
2018-01-02T03:00:00.754Z,61.56
2018-01-02T03:00:32.381Z,61.61
2018-01-02T03:01:04.006Z,61.65
2018-01-02T03:01:35.630Z,61.49
2018-01-02T03:02:07.952Z,61.63
2018-01-02T03:02:39.613Z,61.47
2018-01-02T03:03:11.234Z,61.64
2018-01-02T03:03:42.862Z,61.59
2018-01-02T03:04:14.490Z,61.61
2018-01-02T03:04:46.117Z,61.55
2018-01-02T03:05:17.758Z,61.43
2018-01-02T03:05:49.377Z,61.46
2018-01-02T03:06:21.006Z,61.43
2018-01-02T03:06:52.670Z,61.38
2018-01-02T03:07:24.294Z,61.59
2018-01-02T03:07:55.917Z,61.41
2018-01-02T03:08:27.537Z,61.49
2018-01-02T03:08:59.157Z,61.38
2018-01-02T03:09:30.820Z,61.56
2018-01-02T03:10:02.438Z,61.33
2018-01-02T03:10:34.057Z,61.43
2018-01-02T03:11:05.682Z,61.26
2018-01-02T03:11:37.309Z,61.28
2018-01-02T03:12:08.930Z,61.40
2018-01-02T03:12:40.554Z,61.46
2018-01-02T03:13:12.182Z,61.41
2018-01-02T03:13:43.801Z,61.40
2018-01-02T03:14:15.465Z,61.32
2018-01-02T03:14:47.096Z,61.29
2018-01-02T03:15:18.725Z,61.33
2018-01-02T03:15:50.346Z,61.28
2018-01-02T03:16:21.970Z,61.39
2018-01-02T03:16:53.594Z,61.39
2018-01-02T03:17:25.213Z,61.25
2018-01-02T03:17:56.838Z,61.39
2018-01-02T03:18:28.466Z,61.50
2018-01-02T03:19:00.134Z,61.28
2018-01-02T03:19:31.765Z,61.23
2018-01-02T03:20:03.386Z,61.17
2018-01-02T03:20:35.013Z,61.20
2018-01-02T03:21:06.673Z,61.23
2018-01-02T03:21:38.301Z,61.23
2018-01-02T03:22:09.921Z,61.33
2018-01-02T03:22:41.542Z,61.22
2018-01-02T03:23:13.161Z,61.30
2018-01-02T03:23:44.782Z,61.35
2018-01-02T03:24:16.445Z,61.34
2018-01-02T03:24:48.077Z,61.32
2018-01-02T03:25:19.698Z,61.25
2018-01-02T03:25:51.318Z,61.31
2018-01-02T03:26:22.942Z,61.15
2018-01-02T03:26:54.565Z,61.24
2018-01-02T03:27:26.186Z,61.21
2018-01-02T03:27:57.805Z,61.21
2018-01-02T03:28:29.437Z,61.44
2018-01-02T03:29:01.063Z,61.50
2018-01-02T03:29:32.685Z,61.61
2018-01-02T03:30:04.305Z,61.65
2018-01-02T03:30:35.930Z,61.59
2018-01-02T03:31:07.551Z,61.79
2018-01-02T03:31:39.222Z,61.83
2018-01-02T03:32:10.845Z,61.77
2018-01-02T03:32:42.465Z,61.86
2018-01-02T03:33:14.086Z,61.87
2018-01-02T03:33:45.706Z,61.84
2018-01-02T03:34:17.331Z,61.95
2018-01-02T03:34:48.966Z,61.99
2018-01-02T03:35:20.589Z,62.02
2018-01-02T03:35:52.212Z,62.29
2018-01-02T03:36:23.842Z,62.27
2018-01-02T03:36:55.505Z,61.99
2018-01-02T03:37:27.125Z,61.41
2018-01-02T03:37:58.746Z,60.97
2018-01-02T03:38:30.369Z,61.03
2018-01-02T03:39:01.989Z,61.19
2018-01-02T03:39:33.617Z,61.23
2018-01-02T03:40:05.306Z,61.20
2018-01-02T03:40:36.925Z,61.17
2018-01-02T03:41:08.549Z,61.13
2018-01-02T03:41:40.174Z,61.14
2018-01-02T03:42:11.797Z,61.10
2018-01-02T03:42:43.418Z,61.05
2018-01-02T03:43:15.038Z,61.06
2018-01-02T03:43:46.662Z,61.06
2018-01-02T03:44:18.281Z,60.92
2018-01-02T03:44:49.905Z,60.97
2018-01-02T03:45:21.569Z,60.91
2018-01-02T03:45:53.195Z,60.80
2018-01-02T03:46:24.813Z,60.76
2018-01-02T03:46:56.433Z,60.76
2018-01-02T03:47:28.053Z,60.70
2018-01-02T03:47:59.892Z,60.83
2018-01-02T03:48:31.513Z,58.76
2018-01-02T03:49:03.134Z,54.92
2018-01-02T03:49:34.805Z,51.56
2018-01-02T03:50:06.421Z,47.35
2018-01-02T03:50:38.044Z,45.06
2018-01-02T03:51:09.675Z,43.64
2018-01-02T03:51:41.294Z,46.91
2018-01-02T03:52:12.921Z,50.12
2018-01-02T03:52:44.549Z,51.37
2018-01-02T03:53:16.174Z,52.35
2018-01-02T03:53:47.794Z,51.85
2018-01-02T03:54:19.422Z,52.25
2018-01-02T03:54:51.043Z,52.11
2018-01-02T03:55:22.665Z,52.01
2018-01-02T03:55:54.285Z,52.12
2018-01-02T03:56:25.902Z,52.12
2018-01-02T03:56:57.525Z,51.99
2018-01-02T03:57:29.147Z,52.25
2018-01-02T03:58:00.773Z,52.71
2018-01-02T03:58:32.393Z,52.56
2018-01-02T03:59:04.016Z,52.74
2018-01-02T03:59:35.645Z,52.82
2018-01-02T04:00:07.311Z,52.97
2018-01-02T04:00:38.934Z,53.21
2018-01-02T04:01:10.553Z,53.32
2018-01-02T04:01:42.177Z,53.18
2018-01-02T04:02:13.805Z,53.53
2018-01-02T04:02:45.430Z,53.63
2018-01-02T04:03:17.050Z,53.66
2018-01-02T04:03:48.713Z,53.87
2018-01-02T04:04:20.333Z,53.85
2018-01-02T04:04:51.954Z,53.97
2018-01-02T04:05:23.576Z,54.00
2018-01-02T04:05:55.197Z,54.06
2018-01-02T04:06:26.870Z,54.23
2018-01-02T04:06:58.489Z,54.31
2018-01-02T04:07:30.138Z,54.33
2018-01-02T04:08:01.770Z,54.42
2018-01-02T04:08:33.393Z,54.55
2018-01-02T04:09:05.061Z,54.52
2018-01-02T04:09:36.681Z,54.62
2018-01-02T04:10:08.310Z,54.61
2018-01-02T04:10:39.930Z,54.86
2018-01-02T04:11:11.550Z,54.86
2018-01-02T04:11:43.169Z,54.91
2018-01-02T04:12:14.798Z,54.96
2018-01-02T04:12:46.417Z,55.09
2018-01-02T04:13:18.033Z,55.17
2018-01-02T04:13:49.662Z,55.17
2018-01-02T04:14:21.285Z,55.28
2018-01-02T04:14:52.906Z,55.34
2018-01-02T04:15:24.586Z,55.33
2018-01-02T04:15:56.210Z,55.44
2018-01-02T04:16:27.829Z,55.58
2018-01-02T04:16:59.452Z,55.55
2018-01-02T04:17:31.073Z,55.60
2018-01-02T04:18:02.694Z,55.70
2018-01-02T04:18:34.315Z,55.81
2018-01-02T04:19:05.966Z,55.84
2018-01-02T04:19:37.590Z,55.89
2018-01-02T04:20:09.210Z,55.89
2018-01-02T04:20:40.872Z,56.00
2018-01-02T04:21:12.493Z,56.07
2018-01-02T04:21:44.113Z,56.09
2018-01-02T04:22:15.733Z,56.07
2018-01-02T04:22:47.354Z,56.12
2018-01-02T04:23:18.981Z,56.14
2018-01-02T04:23:50.605Z,56.15
2018-01-02T04:24:22.226Z,56.26
2018-01-02T04:24:53.845Z,56.26
2018-01-02T04:25:25.471Z,56.22
2018-01-02T04:25:57.133Z,56.29
2018-01-02T04:26:28.784Z,56.31
2018-01-02T04:27:00.411Z,56.27
2018-01-02T04:27:32.038Z,56.35
2018-01-02T04:28:03.661Z,56.34
2018-01-02T04:28:35.282Z,56.35
2018-01-02T04:29:06.906Z,56.35
2018-01-02T04:29:38.535Z,56.33
2018-01-02T04:30:10.158Z,56.29
2018-01-02T04:30:41.779Z,56.33
2018-01-02T04:31:13.442Z,56.33
2018-01-02T04:31:45.253Z,56.35
2018-01-02T04:32:16.877Z,56.34
2018-01-02T04:32:48.539Z,56.32
2018-01-02T04:33:20.161Z,56.32
2018-01-02T04:33:51.785Z,56.34
2018-01-02T04:34:23.458Z,56.34
2018-01-02T04:34:55.086Z,56.34
2018-01-02T04:35:26.741Z,56.34
2018-01-02T04:35:58.374Z,56.34
2018-01-02T04:36:29.998Z,56.33
2018-01-02T04:37:01.621Z,56.33
2018-01-02T04:37:33.250Z,56.26
2018-01-02T04:38:04.869Z,56.29
2018-01-02T04:38:36.490Z,56.31
2018-01-02T04:39:08.122Z,56.36
2018-01-02T04:39:39.786Z,56.33
2018-01-02T04:40:11.405Z,56.35
2018-01-02T04:40:43.082Z,56.36
2018-01-02T04:41:14.702Z,56.39
2018-01-02T04:41:46.323Z,56.39
2018-01-02T04:42:17.945Z,56.34
2018-01-02T04:42:49.569Z,56.38
2018-01-02T04:43:21.190Z,56.37
2018-01-02T04:43:52.810Z,56.35
2018-01-02T04:44:24.438Z,56.35
2018-01-02T04:44:56.057Z,56.34
2018-01-02T04:45:27.685Z,56.35
2018-01-02T04:45:59.353Z,56.36
2018-01-02T04:46:30.977Z,56.34
2018-01-02T04:47:02.599Z,56.37
2018-01-02T04:47:34.218Z,56.35
2018-01-02T04:48:05.842Z,56.35
2018-01-02T04:48:37.462Z,56.37
2018-01-02T04:49:09.082Z,56.42
2018-01-02T04:49:40.705Z,56.43
2018-01-02T04:50:12.326Z,56.43
2018-01-02T04:50:43.945Z,56.46
2018-01-02T04:51:15.623Z,56.44
2018-01-02T04:51:47.246Z,56.42
2018-01-02T04:52:18.869Z,56.38
2018-01-02T04:52:50.489Z,56.39
2018-01-02T04:53:22.114Z,56.41
2018-01-02T04:53:53.734Z,56.39
2018-01-02T04:54:25.357Z,56.38
2018-01-02T04:54:56.982Z,56.40
2018-01-02T04:55:28.615Z,56.44
2018-01-02T04:56:00.270Z,56.41
2018-01-02T04:56:31.889Z,56.42
2018-01-02T04:57:03.509Z,56.45
2018-01-02T04:57:35.129Z,56.44
2018-01-02T04:58:06.746Z,56.47
2018-01-02T04:58:38.375Z,56.49
2018-01-02T04:59:09.997Z,56.47
2018-01-02T04:59:41.625Z,56.49
2018-01-02T05:00:13.250Z,56.52
2018-01-02T05:00:44.882Z,56.47
2018-01-02T05:01:16.550Z,56.47
2018-01-02T05:01:48.178Z,56.50
2018-01-02T05:02:19.814Z,56.51
2018-01-02T05:02:51.433Z,56.51
2018-01-02T05:03:23.058Z,56.52
2018-01-02T05:03:54.683Z,56.50
2018-01-02T05:04:26.349Z,56.56
2018-01-02T05:04:57.973Z,56.55
2018-01-02T05:05:29.597Z,56.57
2018-01-02T05:06:01.218Z,56.56
2018-01-02T05:06:32.853Z,56.60
2018-01-02T05:07:04.478Z,56.57
2018-01-02T05:07:36.098Z,56.64
2018-01-02T05:08:07.720Z,56.66
2018-01-02T05:08:39.381Z,56.67
2018-01-02T05:09:11.057Z,56.71
2018-01-02T05:09:42.682Z,56.75
2018-01-02T05:10:14.301Z,56.75
2018-01-02T05:10:45.929Z,56.77
2018-01-02T05:11:17.551Z,56.72
2018-01-02T05:11:49.173Z,56.81
2018-01-02T05:12:20.797Z,56.72
2018-01-02T05:12:52.417Z,56.76
2018-01-02T05:13:24.041Z,56.75
2018-01-02T05:13:55.662Z,56.79
2018-01-02T05:14:27.336Z,56.78
2018-01-02T05:14:58.961Z,56.84
2018-01-02T05:15:30.586Z,56.86
2018-01-02T05:16:02.210Z,56.87
2018-01-02T05:16:33.833Z,56.93
2018-01-02T05:17:05.448Z,56.92
2018-01-02T05:17:37.065Z,56.97
2018-01-02T05:18:08.686Z,56.96
2018-01-02T05:18:40.310Z,56.98
2018-01-02T05:19:11.929Z,56.98
2018-01-02T05:19:43.601Z,57.01
2018-01-02T05:20:15.226Z,57.01
2018-01-02T05:20:46.853Z,56.99
2018-01-02T05:21:18.474Z,56.98
2018-01-02T05:21:50.097Z,56.98
2018-01-02T05:22:21.717Z,56.97
2018-01-02T05:22:53.338Z,56.98
2018-01-02T05:23:24.961Z,56.96
2018-01-02T05:23:56.626Z,56.94
2018-01-02T05:24:28.246Z,56.93
2018-01-02T05:24:59.861Z,56.88
2018-01-02T05:25:31.481Z,56.87
2018-01-02T05:26:03.101Z,56.88
2018-01-02T05:26:34.721Z,56.87
2018-01-02T05:27:06.351Z,56.86
2018-01-02T05:27:37.970Z,56.82
2018-01-02T05:28:09.600Z,56.82
2018-01-02T05:28:41.237Z,56.81
2018-01-02T05:29:12.882Z,56.81
2018-01-02T05:29:44.502Z,56.75
2018-01-02T05:30:16.125Z,56.76
2018-01-02T05:30:47.745Z,56.77
2018-01-02T05:31:19.422Z,56.80
2018-01-02T05:31:51.047Z,56.75
2018-01-02T05:32:22.677Z,56.73
2018-01-02T05:32:54.298Z,56.72
2018-01-02T05:33:25.917Z,56.72
2018-01-02T05:33:57.542Z,56.68
2018-01-02T05:34:29.173Z,56.67
2018-01-02T05:35:00.793Z,56.63
2018-01-02T05:35:32.413Z,56.63
2018-01-02T05:36:04.034Z,56.60
2018-01-02T05:36:35.697Z,56.57
2018-01-02T05:37:07.318Z,56.57
2018-01-02T05:37:38.938Z,56.60
2018-01-02T05:38:10.562Z,56.55
2018-01-02T05:38:42.226Z,56.56
2018-01-02T05:39:13.845Z,56.53
2018-01-02T05:39:45.466Z,56.56
2018-01-02T05:40:17.089Z,56.58
2018-01-02T05:40:48.705Z,56.61
2018-01-02T05:41:20.329Z,56.58
2018-01-02T05:41:51.953Z,56.61
2018-01-02T05:42:23.617Z,56.61
2018-01-02T05:42:55.237Z,56.58
2018-01-02T05:43:27.070Z,56.58
2018-01-02T05:43:58.697Z,56.56
2018-01-02T05:44:30.320Z,56.56
2018-01-02T05:45:01.942Z,56.55
2018-01-02T05:45:33.566Z,56.54
2018-01-02T05:46:05.193Z,56.49
2018-01-02T05:46:36.817Z,56.50
2018-01-02T05:47:08.490Z,56.50
2018-01-02T05:47:40.109Z,56.50
2018-01-02T05:48:11.737Z,56.49
2018-01-02T05:48:43.398Z,56.48
2018-01-02T05:49:15.018Z,56.46
2018-01-02T05:49:46.643Z,56.45
2018-01-02T05:50:18.270Z,56.45
2018-01-02T05:50:49.885Z,56.45
2018-01-02T05:51:21.505Z,56.45
2018-01-02T05:51:53.131Z,56.47
2018-01-02T05:52:24.758Z,56.45
2018-01-02T05:52:56.438Z,56.43
2018-01-02T05:53:28.069Z,56.44
2018-01-02T05:53:59.695Z,56.44
2018-01-02T05:54:31.320Z,56.42
2018-01-02T05:55:02.950Z,56.42
2018-01-02T05:55:34.570Z,56.42
2018-01-02T05:56:06.194Z,56.41
2018-01-02T05:56:37.814Z,56.44
2018-01-02T05:57:09.443Z,56.43
2018-01-02T05:57:41.070Z,56.45
2018-01-02T05:58:12.698Z,56.49
2018-01-02T05:58:44.317Z,56.47
2018-01-02T05:59:15.946Z,56.46
2018-01-02T05:59:47.578Z,56.44
2018-01-02T06:00:19.201Z,56.44
2018-01-02T06:00:50.825Z,56.44
2018-01-02T06:01:22.445Z,56.45
2018-01-02T06:01:54.109Z,56.43
2018-01-02T06:02:25.730Z,56.46
2018-01-02T06:02:57.349Z,56.43
2018-01-02T06:03:28.973Z,56.43
2018-01-02T06:04:00.593Z,56.43
2018-01-02T06:04:32.217Z,56.43
2018-01-02T06:05:03.845Z,56.44
2018-01-02T06:05:35.465Z,56.40
2018-01-02T06:06:07.086Z,56.39
2018-01-02T06:06:38.705Z,56.39
2018-01-02T06:07:10.366Z,56.43
2018-01-02T06:07:41.995Z,56.37
2018-01-02T06:08:13.661Z,56.41
2018-01-02T06:08:45.281Z,56.43
2018-01-02T06:09:16.901Z,56.44
2018-01-02T06:09:48.566Z,56.43
2018-01-02T06:10:20.189Z,56.41
2018-01-02T06:10:51.809Z,56.42
2018-01-02T06:11:23.446Z,56.40
2018-01-02T06:11:55.067Z,56.36
2018-01-02T06:12:26.689Z,56.36
2018-01-02T06:12:58.313Z,56.40
2018-01-02T06:13:29.929Z,56.38
2018-01-02T06:14:01.601Z,56.38
2018-01-02T06:14:33.225Z,56.35
2018-01-02T06:15:04.847Z,56.36
2018-01-02T06:15:36.474Z,56.33
2018-01-02T06:16:08.097Z,56.34
2018-01-02T06:16:39.718Z,56.29
2018-01-02T06:17:11.338Z,56.32
2018-01-02T06:17:42.966Z,56.30
2018-01-02T06:18:14.589Z,56.29
2018-01-02T06:18:46.213Z,56.30
2018-01-02T06:19:17.881Z,56.33
2018-01-02T06:19:49.505Z,56.34
2018-01-02T06:20:21.131Z,56.39
2018-01-02T06:20:52.766Z,56.38
2018-01-02T06:21:24.393Z,56.35
2018-01-02T06:21:56.024Z,56.31
2018-01-02T06:22:27.647Z,56.33
2018-01-02T06:22:59.273Z,56.34
2018-01-02T06:23:30.893Z,56.34
2018-01-02T06:24:02.566Z,56.38
2018-01-02T06:24:34.194Z,56.35
2018-01-02T06:25:05.818Z,56.40
2018-01-02T06:25:37.438Z,56.40
2018-01-02T06:26:09.062Z,56.40
2018-01-02T06:26:40.683Z,56.42
2018-01-02T06:27:12.306Z,56.41
2018-01-02T06:27:43.928Z,56.39
2018-01-02T06:28:15.554Z,56.37
2018-01-02T06:28:47.173Z,56.35
2018-01-02T06:29:18.841Z,56.37
2018-01-02T06:29:50.467Z,56.37
2018-01-02T06:30:22.089Z,56.37
2018-01-02T06:30:53.715Z,56.38
2018-01-02T06:31:25.338Z,56.38
2018-01-02T06:31:56.962Z,56.32
2018-01-02T06:32:28.597Z,56.35
2018-01-02T06:33:00.221Z,56.36
2018-01-02T06:33:31.837Z,56.39
2018-01-02T06:34:03.457Z,56.37
2018-01-02T06:34:35.145Z,56.37
2018-01-02T06:35:06.765Z,56.39
2018-01-02T06:35:38.386Z,56.36
2018-01-02T06:36:10.009Z,56.35
2018-01-02T06:36:41.629Z,56.31
2018-01-02T06:37:13.250Z,56.27
2018-01-02T06:37:44.873Z,56.27
2018-01-02T06:38:16.496Z,56.24
2018-01-02T06:38:48.114Z,56.28
2018-01-02T06:39:19.734Z,56.31
2018-01-02T06:39:51.405Z,56.31
2018-01-02T06:40:23.034Z,56.29
2018-01-02T06:40:54.662Z,56.32
2018-01-02T06:41:26.281Z,56.31
2018-01-02T06:41:57.901Z,56.32
2018-01-02T06:42:29.523Z,56.31
2018-01-02T06:43:01.147Z,56.27
2018-01-02T06:43:32.773Z,56.31
2018-01-02T06:44:04.402Z,56.33
2018-01-02T06:44:36.025Z,56.30
2018-01-02T06:45:07.685Z,56.32
2018-01-02T06:45:39.305Z,56.35
2018-01-02T06:46:10.925Z,56.37
2018-01-02T06:46:42.542Z,56.34
2018-01-02T06:47:14.161Z,56.36